sensor_id;sensor_type;location;lat;lon;timestamp;P1;durP1;ratioP1;P2;durP2;ratioP2
40252;SDS011;25972;51.854;4.534;2022-09-02T00:00:58;2.65;;;0.88;;
40252;SDS011;25972;51.854;4.534;2022-09-02T00:03:27;2.15;;;0.93;;
40252;SDS011;25972;51.854;4.534;2022-09-02T00:05:55;1.98;;;1.00;;
40252;SDS011;25972;51.854;4.534;2022-09-02T00:08:21;4.10;;;1.25;;
40252;SDS011;25972;51.854;4.534;2022-09-02T00:10:47;1.45;;;0.90;;
40252;SDS011;25972;51.854;4.534;2022-09-02T00:13:14;2.42;;;1.38;;
40252;SDS011;25972;51.854;4.534;2022-09-02T00:15:42;2.22;;;1.13;;
40252;SDS011;25972;51.854;4.534;2022-09-02T00:18:08;3.33;;;1.10;;
40252;SDS011;25972;51.854;4.534;2022-09-02T00:20:39;2.65;;;0.90;;
40252;SDS011;25972;51.854;4.534;2022-09-02T00:23:06;4.63;;;1.17;;
40252;SDS011;25972;51.854;4.534;2022-09-02T00:25:33;2.95;;;1.13;;
40252;SDS011;25972;51.854;4.534;2022-09-02T00:28:00;3.22;;;1.02;;
40252;SDS011;25972;51.854;4.534;2022-09-02T00:30:26;2.33;;;1.00;;
40252;SDS011;25972;51.854;4.534;2022-09-02T00:32:52;3.22;;;1.08;;
40252;SDS011;25972;51.854;4.534;2022-09-02T00:35:18;4.40;;;1.35;;
40252;SDS011;25972;51.854;4.534;2022-09-02T00:37:44;6.47;;;1.00;;
40252;SDS011;25972;51.854;4.534;2022-09-02T00:40:11;2.60;;;1.23;;
40252;SDS011;25972;51.854;4.534;2022-09-02T00:42:38;2.70;;;1.10;;
40252;SDS011;25972;51.854;4.534;2022-09-02T00:45:05;3.45;;;1.10;;
40252;SDS011;25972;51.854;4.534;2022-09-02T00:47:32;3.42;;;1.23;;
40252;SDS011;25972;51.854;4.534;2022-09-02T00:49:58;2.10;;;1.15;;
40252;SDS011;25972;51.854;4.534;2022-09-02T00:52:32;4.82;;;1.08;;
40252;SDS011;25972;51.854;4.534;2022-09-02T00:55:03;3.13;;;1.25;;
40252;SDS011;25972;51.854;4.534;2022-09-02T00:57:52;1.27;;;1.00;;
40252;SDS011;25972;51.854;4.534;2022-09-02T01:00:26;4.30;;;1.55;;
40252;SDS011;25972;51.854;4.534;2022-09-02T01:05:23;1.85;;;0.95;;
40252;SDS011;25972;51.854;4.534;2022-09-02T01:07:51;2.00;;;0.98;;
40252;SDS011;25972;51.854;4.534;2022-09-02T01:10:20;4.80;;;1.10;;
40252;SDS011;25972;51.854;4.534;2022-09-02T01:15:25;3.30;;;1.10;;
40252;SDS011;25972;51.854;4.534;2022-09-02T01:17:52;1.20;;;1.10;;
40252;SDS011;25972;51.854;4.534;2022-09-02T01:20:20;3.33;;;1.17;;
40252;SDS011;25972;51.854;4.534;2022-09-02T01:22:49;3.15;;;1.13;;
40252;SDS011;25972;51.854;4.534;2022-09-02T01:25:18;1.90;;;1.05;;
40252;SDS011;25972;51.854;4.534;2022-09-02T01:27:50;3.42;;;1.33;;
40252;SDS011;25972;51.854;4.534;2022-09-02T01:30:24;2.20;;;1.33;;
40252;SDS011;25972;51.854;4.534;2022-09-02T01:32:50;1.73;;;1.00;;
40252;SDS011;25972;51.854;4.534;2022-09-02T01:35:16;5.10;;;1.30;;
40252;SDS011;25972;51.854;4.534;2022-09-02T01:37:42;2.20;;;1.00;;
40252;SDS011;25972;51.854;4.534;2022-09-02T01:40:10;4.72;;;1.05;;
40252;SDS011;25972;51.854;4.534;2022-09-02T01:42:38;3.50;;;1.00;;
40252;SDS011;25972;51.854;4.534;2022-09-02T01:45:05;3.80;;;1.15;;
40252;SDS011;25972;51.854;4.534;2022-09-02T01:47:35;5.50;;;1.35;;
40252;SDS011;25972;51.854;4.534;2022-09-02T01:50:03;3.05;;;1.17;;
40252;SDS011;25972;51.854;4.534;2022-09-02T01:52:34;6.38;;;1.35;;
40252;SDS011;25972;51.854;4.534;2022-09-02T01:55:00;2.15;;;1.25;;
40252;SDS011;25972;51.854;4.534;2022-09-02T01:57:26;2.47;;;1.30;;
40252;SDS011;25972;51.854;4.534;2022-09-02T01:59:52;3.28;;;1.15;;
40252;SDS011;25972;51.854;4.534;2022-09-02T02:02:19;5.28;;;1.52;;
40252;SDS011;25972;51.854;4.534;2022-09-02T02:04:46;2.08;;;1.20;;
40252;SDS011;25972;51.854;4.534;2022-09-02T02:07:15;2.05;;;1.10;;
40252;SDS011;25972;51.854;4.534;2022-09-02T02:09:43;7.18;;;1.50;;
40252;SDS011;25972;51.854;4.534;2022-09-02T02:12:12;4.57;;;1.30;;
40252;SDS011;25972;51.854;4.534;2022-09-02T02:14:37;3.58;;;1.02;;
40252;SDS011;25972;51.854;4.534;2022-09-02T02:17:03;5.07;;;1.30;;
40252;SDS011;25972;51.854;4.534;2022-09-02T02:19:29;2.75;;;1.20;;
40252;SDS011;25972;51.854;4.534;2022-09-02T02:21:56;2.67;;;1.20;;
40252;SDS011;25972;51.854;4.534;2022-09-02T02:24:21;4.47;;;1.40;;
40252;SDS011;25972;51.854;4.534;2022-09-02T02:26:47;3.42;;;1.25;;
40252;SDS011;25972;51.854;4.534;2022-09-02T02:29:16;2.30;;;1.10;;
40252;SDS011;25972;51.854;4.534;2022-09-02T02:31:42;2.80;;;1.20;;
40252;SDS011;25972;51.854;4.534;2022-09-02T02:34:10;4.32;;;1.15;;
40252;SDS011;25972;51.854;4.534;2022-09-02T02:36:39;3.67;;;1.10;;
40252;SDS011;25972;51.854;4.534;2022-09-02T02:39:06;2.58;;;1.10;;
40252;SDS011;25972;51.854;4.534;2022-09-02T02:41:34;4.00;;;1.40;;
40252;SDS011;25972;51.854;4.534;2022-09-02T02:44:01;3.80;;;1.20;;
40252;SDS011;25972;51.854;4.534;2022-09-02T02:46:27;2.30;;;1.23;;
40252;SDS011;25972;51.854;4.534;2022-09-02T02:48:59;3.70;;;1.17;;
40252;SDS011;25972;51.854;4.534;2022-09-02T02:51:25;4.55;;;1.40;;
40252;SDS011;25972;51.854;4.534;2022-09-02T02:53:51;5.25;;;1.25;;
40252;SDS011;25972;51.854;4.534;2022-09-02T02:56:17;3.53;;;1.23;;
40252;SDS011;25972;51.854;4.534;2022-09-02T02:58:44;6.55;;;1.45;;
40252;SDS011;25972;51.854;4.534;2022-09-02T03:01:10;3.42;;;1.30;;
40252;SDS011;25972;51.854;4.534;2022-09-02T03:03:36;1.98;;;1.10;;
40252;SDS011;25972;51.854;4.534;2022-09-02T03:06:03;2.67;;;1.10;;
40252;SDS011;25972;51.854;4.534;2022-09-02T03:08:29;1.83;;;1.20;;
40252;SDS011;25972;51.854;4.534;2022-09-02T03:10:55;3.85;;;1.55;;
40252;SDS011;25972;51.854;4.534;2022-09-02T03:13:25;3.13;;;1.42;;
40252;SDS011;25972;51.854;4.534;2022-09-02T03:15:51;2.67;;;1.42;;
40252;SDS011;25972;51.854;4.534;2022-09-02T03:18:18;5.38;;;1.58;;
40252;SDS011;25972;51.854;4.534;2022-09-02T03:20:45;2.55;;;1.20;;
40252;SDS011;25972;51.854;4.534;2022-09-02T03:23:11;3.05;;;1.30;;
40252;SDS011;25972;51.854;4.534;2022-09-02T03:25:41;2.30;;;1.10;;
40252;SDS011;25972;51.854;4.534;2022-09-02T03:28:15;1.70;;;1.10;;
40252;SDS011;25972;51.854;4.534;2022-09-02T03:30:43;4.15;;;1.58;;
40252;SDS011;25972;51.854;4.534;2022-09-02T03:33:11;6.93;;;1.35;;
40252;SDS011;25972;51.854;4.534;2022-09-02T03:35:39;2.42;;;1.40;;
40252;SDS011;25972;51.854;4.534;2022-09-02T03:38:07;5.00;;;1.50;;
40252;SDS011;25972;51.854;4.534;2022-09-02T03:40:34;1.48;;;1.15;;
40252;SDS011;25972;51.854;4.534;2022-09-02T03:43:00;3.13;;;1.67;;
40252;SDS011;25972;51.854;4.534;2022-09-02T03:45:28;2.15;;;1.42;;
40252;SDS011;25972;51.854;4.534;2022-09-02T03:47:56;3.85;;;1.60;;
40252;SDS011;25972;51.854;4.534;2022-09-02T03:50:27;2.72;;;1.40;;
40252;SDS011;25972;51.854;4.534;2022-09-02T03:52:56;2.83;;;1.70;;
40252;SDS011;25972;51.854;4.534;2022-09-02T03:55:23;3.25;;;1.60;;
40252;SDS011;25972;51.854;4.534;2022-09-02T03:57:50;2.75;;;1.30;;
40252;SDS011;25972;51.854;4.534;2022-09-02T04:00:17;2.60;;;1.42;;
40252;SDS011;25972;51.854;4.534;2022-09-02T04:02:48;5.00;;;1.40;;
40252;SDS011;25972;51.854;4.534;2022-09-02T04:05:16;3.85;;;1.33;;
40252;SDS011;25972;51.854;4.534;2022-09-02T04:07:43;2.88;;;1.38;;
40252;SDS011;25972;51.854;4.534;2022-09-02T04:10:10;4.18;;;1.58;;
40252;SDS011;25972;51.854;4.534;2022-09-02T04:12:36;2.88;;;1.25;;
40252;SDS011;25972;51.854;4.534;2022-09-02T04:15:04;2.92;;;1.40;;
40252;SDS011;25972;51.854;4.534;2022-09-02T04:17:39;2.05;;;1.30;;
40252;SDS011;25972;51.854;4.534;2022-09-02T04:20:09;2.67;;;1.30;;
40252;SDS011;25972;51.854;4.534;2022-09-02T04:22:37;5.15;;;1.58;;
40252;SDS011;25972;51.854;4.534;2022-09-02T04:25:04;3.35;;;1.50;;
40252;SDS011;25972;51.854;4.534;2022-09-02T04:27:32;4.22;;;1.50;;
40252;SDS011;25972;51.854;4.534;2022-09-02T04:33:52;2.72;;;1.42;;
40252;SDS011;25972;51.854;4.534;2022-09-02T04:36:19;5.57;;;1.25;;
40252;SDS011;25972;51.854;4.534;2022-09-02T04:38:48;6.03;;;1.52;;
40252;SDS011;25972;51.854;4.534;2022-09-02T04:41:17;2.63;;;1.20;;
40252;SDS011;25972;51.854;4.534;2022-09-02T04:43:48;4.10;;;1.70;;
40252;SDS011;25972;51.854;4.534;2022-09-02T04:46:15;2.97;;;1.50;;
40252;SDS011;25972;51.854;4.534;2022-09-02T04:48:42;6.47;;;1.42;;
40252;SDS011;25972;51.854;4.534;2022-09-02T04:51:17;2.42;;;1.70;;
40252;SDS011;25972;51.854;4.534;2022-09-02T04:53:47;3.35;;;1.48;;
40252;SDS011;25972;51.854;4.534;2022-09-02T04:56:20;4.85;;;1.40;;
40252;SDS011;25972;51.854;4.534;2022-09-02T04:58:51;4.18;;;1.60;;
40252;SDS011;25972;51.854;4.534;2022-09-02T05:01:23;2.80;;;1.35;;
40252;SDS011;25972;51.854;4.534;2022-09-02T05:03:58;2.58;;;1.23;;
40252;SDS011;25972;51.854;4.534;2022-09-02T05:06:32;3.55;;;1.42;;
40252;SDS011;25972;51.854;4.534;2022-09-02T05:08:59;3.03;;;1.40;;
40252;SDS011;25972;51.854;4.534;2022-09-02T05:11:30;5.95;;;1.65;;
40252;SDS011;25972;51.854;4.534;2022-09-02T05:13:58;5.30;;;1.50;;
40252;SDS011;25972;51.854;4.534;2022-09-02T05:16:28;3.17;;;1.45;;
40252;SDS011;25972;51.854;4.534;2022-09-02T05:18:55;3.50;;;1.45;;
40252;SDS011;25972;51.854;4.534;2022-09-02T05:21:23;5.85;;;1.40;;
40252;SDS011;25972;51.854;4.534;2022-09-02T05:23:51;3.70;;;1.33;;
40252;SDS011;25972;51.854;4.534;2022-09-02T05:26:19;3.03;;;1.40;;
40252;SDS011;25972;51.854;4.534;2022-09-02T05:28:46;3.30;;;1.40;;
40252;SDS011;25972;51.854;4.534;2022-09-02T05:31:12;3.85;;;1.83;;
40252;SDS011;25972;51.854;4.534;2022-09-02T05:33:41;4.32;;;1.70;;
40252;SDS011;25972;51.854;4.534;2022-09-02T05:36:09;4.78;;;1.60;;
40252;SDS011;25972;51.854;4.534;2022-09-02T05:38:41;5.28;;;1.50;;
40252;SDS011;25972;51.854;4.534;2022-09-02T05:41:10;5.03;;;1.70;;
40252;SDS011;25972;51.854;4.534;2022-09-02T05:43:40;3.50;;;1.83;;
40252;SDS011;25972;51.854;4.534;2022-09-02T05:46:09;5.93;;;1.73;;
40252;SDS011;25972;51.854;4.534;2022-09-02T05:48:37;5.20;;;1.45;;
40252;SDS011;25972;51.854;4.534;2022-09-02T05:51:23;7.30;;;2.10;;
40252;SDS011;25972;51.854;4.534;2022-09-02T05:53:51;4.47;;;1.70;;
40252;SDS011;25972;51.854;4.534;2022-09-02T05:56:19;3.60;;;1.58;;
40252;SDS011;25972;51.854;4.534;2022-09-02T05:58:46;4.95;;;2.15;;
40252;SDS011;25972;51.854;4.534;2022-09-02T06:01:12;4.95;;;1.30;;
40252;SDS011;25972;51.854;4.534;2022-09-02T06:03:39;5.32;;;1.83;;
40252;SDS011;25972;51.854;4.534;2022-09-02T06:06:06;4.78;;;2.00;;
40252;SDS011;25972;51.854;4.534;2022-09-02T06:08:35;5.00;;;1.83;;
40252;SDS011;25972;51.854;4.534;2022-09-02T06:11:03;3.28;;;1.67;;
40252;SDS011;25972;51.854;4.534;2022-09-02T06:13:36;6.40;;;1.90;;
40252;SDS011;25972;51.854;4.534;2022-09-02T06:16:03;4.80;;;1.80;;
40252;SDS011;25972;51.854;4.534;2022-09-02T06:18:30;6.97;;;1.98;;
40252;SDS011;25972;51.854;4.534;2022-09-02T06:20:57;3.88;;;1.85;;
40252;SDS011;25972;51.854;4.534;2022-09-02T06:23:28;7.68;;;1.73;;
40252;SDS011;25972;51.854;4.534;2022-09-02T06:25:57;5.93;;;1.85;;
40252;SDS011;25972;51.854;4.534;2022-09-02T06:28:24;6.60;;;2.10;;
40252;SDS011;25972;51.854;4.534;2022-09-02T06:30:50;4.93;;;1.88;;
40252;SDS011;25972;51.854;4.534;2022-09-02T06:33:21;4.45;;;1.83;;
40252;SDS011;25972;51.854;4.534;2022-09-02T06:35:47;4.25;;;2.00;;
40252;SDS011;25972;51.854;4.534;2022-09-02T06:38:16;4.43;;;1.80;;
40252;SDS011;25972;51.854;4.534;2022-09-02T06:40:45;4.65;;;1.77;;
40252;SDS011;25972;51.854;4.534;2022-09-02T06:43:20;5.28;;;2.00;;
40252;SDS011;25972;51.854;4.534;2022-09-02T06:46:03;5.68;;;1.92;;
40252;SDS011;25972;51.854;4.534;2022-09-02T06:48:31;6.07;;;2.20;;
40252;SDS011;25972;51.854;4.534;2022-09-02T06:50:57;4.93;;;2.00;;
40252;SDS011;25972;51.854;4.534;2022-09-02T06:53:23;6.03;;;2.05;;
40252;SDS011;25972;51.854;4.534;2022-09-02T06:55:49;6.72;;;1.98;;
40252;SDS011;25972;51.854;4.534;2022-09-02T06:58:15;6.20;;;2.10;;
40252;SDS011;25972;51.854;4.534;2022-09-02T07:00:41;4.68;;;2.00;;
40252;SDS011;25972;51.854;4.534;2022-09-02T07:03:09;6.47;;;2.30;;
40252;SDS011;25972;51.854;4.534;2022-09-02T07:05:58;6.53;;;2.22;;
40252;SDS011;25972;51.854;4.534;2022-09-02T07:08:39;4.05;;;2.10;;
40252;SDS011;25972;51.854;4.534;2022-09-02T07:11:13;5.93;;;1.90;;
40252;SDS011;25972;51.854;4.534;2022-09-02T07:13:41;7.05;;;2.30;;
40252;SDS011;25972;51.854;4.534;2022-09-02T07:16:08;8.52;;;2.33;;
40252;SDS011;25972;51.854;4.534;2022-09-02T07:18:34;8.23;;;2.60;;
40252;SDS011;25972;51.854;4.534;2022-09-02T07:21:00;4.65;;;2.15;;
40252;SDS011;25972;51.854;4.534;2022-09-02T07:23:27;6.13;;;2.35;;
40252;SDS011;25972;51.854;4.534;2022-09-02T07:25:53;7.88;;;2.50;;
40252;SDS011;25972;51.854;4.534;2022-09-02T07:28:20;4.72;;;2.33;;
40252;SDS011;25972;51.854;4.534;2022-09-02T07:30:47;8.30;;;2.28;;
40252;SDS011;25972;51.854;4.534;2022-09-02T07:33:16;4.60;;;2.20;;
40252;SDS011;25972;51.854;4.534;2022-09-02T07:35:44;6.70;;;2.70;;
40252;SDS011;25972;51.854;4.534;2022-09-02T07:38:13;8.25;;;2.63;;
40252;SDS011;25972;51.854;4.534;2022-09-02T07:40:40;5.47;;;2.47;;
40252;SDS011;25972;51.854;4.534;2022-09-02T07:43:09;9.98;;;2.53;;
40252;SDS011;25972;51.854;4.534;2022-09-02T07:45:36;8.30;;;2.70;;
40252;SDS011;25972;51.854;4.534;2022-09-02T07:48:04;7.28;;;2.85;;
40252;SDS011;25972;51.854;4.534;2022-09-02T07:50:36;4.25;;;2.30;;
40252;SDS011;25972;51.854;4.534;2022-09-02T07:53:03;4.88;;;2.30;;
40252;SDS011;25972;51.854;4.534;2022-09-02T07:55:31;7.38;;;2.55;;
40252;SDS011;25972;51.854;4.534;2022-09-02T07:58:03;6.28;;;2.75;;
40252;SDS011;25972;51.854;4.534;2022-09-02T08:00:29;6.65;;;2.75;;
40252;SDS011;25972;51.854;4.534;2022-09-02T08:03:02;10.00;;;3.03;;
40252;SDS011;25972;51.854;4.534;2022-09-02T08:05:35;13.07;;;3.50;;
40252;SDS011;25972;51.854;4.534;2022-09-02T08:08:01;8.98;;;3.22;;
40252;SDS011;25972;51.854;4.534;2022-09-02T08:10:28;8.77;;;3.53;;
40252;SDS011;25972;51.854;4.534;2022-09-02T08:12:55;7.70;;;3.20;;
40252;SDS011;25972;51.854;4.534;2022-09-02T08:15:22;6.15;;;2.90;;
40252;SDS011;25972;51.854;4.534;2022-09-02T08:17:49;8.52;;;3.10;;
40252;SDS011;25972;51.854;4.534;2022-09-02T08:20:15;9.25;;;3.67;;
40252;SDS011;25972;51.854;4.534;2022-09-02T08:22:41;15.35;;;3.55;;
40252;SDS011;25972;51.854;4.534;2022-09-02T08:25:08;9.43;;;3.60;;
40252;SDS011;25972;51.854;4.534;2022-09-02T08:27:35;7.78;;;3.40;;
40252;SDS011;25972;51.854;4.534;2022-09-02T08:30:02;9.25;;;3.55;;
40252;SDS011;25972;51.854;4.534;2022-09-02T08:32:30;10.55;;;3.75;;
40252;SDS011;25972;51.854;4.534;2022-09-02T08:34:57;8.13;;;3.53;;
40252;SDS011;25972;51.854;4.534;2022-09-02T08:37:27;7.35;;;3.05;;
40252;SDS011;25972;51.854;4.534;2022-09-02T08:39:53;9.63;;;3.20;;
40252;SDS011;25972;51.854;4.534;2022-09-02T08:44:55;7.63;;;3.20;;
40252;SDS011;25972;51.854;4.534;2022-09-02T08:47:28;8.63;;;3.45;;
40252;SDS011;25972;51.854;4.534;2022-09-02T08:50:02;10.65;;;3.10;;
40252;SDS011;25972;51.854;4.534;2022-09-02T08:55:03;10.38;;;3.63;;
40252;SDS011;25972;51.854;4.534;2022-09-02T08:57:32;10.93;;;3.95;;
40252;SDS011;25972;51.854;4.534;2022-09-02T08:59:59;9.52;;;2.95;;
40252;SDS011;25972;51.854;4.534;2022-09-02T09:11:04;6.38;;;2.97;;
40252;SDS011;25972;51.854;4.534;2022-09-02T09:14:12;6.50;;;3.08;;
40252;SDS011;25972;51.854;4.534;2022-09-02T09:19:27;8.25;;;3.40;;
40252;SDS011;25972;51.854;4.534;2022-09-02T09:22:14;9.48;;;3.35;;
40252;SDS011;25972;51.854;4.534;2022-09-02T09:24:48;9.23;;;3.70;;
40252;SDS011;25972;51.854;4.534;2022-09-02T09:27:15;8.18;;;3.25;;
40252;SDS011;25972;51.854;4.534;2022-09-02T09:29:43;10.18;;;3.33;;
40252;SDS011;25972;51.854;4.534;2022-09-02T09:32:24;6.45;;;3.20;;
40252;SDS011;25972;51.854;4.534;2022-09-02T09:35:06;6.53;;;2.80;;
40252;SDS011;25972;51.854;4.534;2022-09-02T09:37:46;9.38;;;3.00;;
40252;SDS011;25972;51.854;4.534;2022-09-02T09:43:10;8.80;;;3.25;;
40252;SDS011;25972;51.854;4.534;2022-09-02T09:48:24;13.10;;;3.75;;
40252;SDS011;25972;51.854;4.534;2022-09-02T09:55:49;7.25;;;3.00;;
40252;SDS011;25972;51.854;4.534;2022-09-02T09:58:34;8.40;;;3.15;;
40252;SDS011;25972;51.854;4.534;2022-09-02T10:01:36;15.07;;;3.80;;
40252;SDS011;25972;51.854;4.534;2022-09-02T10:09:01;7.35;;;2.90;;
40252;SDS011;25972;51.854;4.534;2022-09-02T10:11:59;8.25;;;3.35;;
40252;SDS011;25972;51.854;4.534;2022-09-02T10:14:46;6.88;;;3.40;;
40252;SDS011;25972;51.854;4.534;2022-09-02T10:17:24;6.10;;;2.72;;
40252;SDS011;25972;51.854;4.534;2022-09-02T10:30:49;5.30;;;2.85;;
40252;SDS011;25972;51.854;4.534;2022-09-02T10:33:22;10.50;;;3.22;;
40252;SDS011;25972;51.854;4.534;2022-09-02T10:41:11;7.38;;;3.45;;
40252;SDS011;25972;51.854;4.534;2022-09-02T10:52:52;8.15;;;3.17;;
40252;SDS011;25972;51.854;4.534;2022-09-02T10:55:17;8.30;;;3.75;;
40252;SDS011;25972;51.854;4.534;2022-09-02T10:58:13;6.90;;;3.22;;
40252;SDS011;25972;51.854;4.534;2022-09-02T11:00:54;7.05;;;3.20;;
40252;SDS011;25972;51.854;4.534;2022-09-02T11:03:37;7.65;;;3.22;;
40252;SDS011;25972;51.854;4.534;2022-09-02T11:06:25;10.55;;;3.65;;
40252;SDS011;25972;51.854;4.534;2022-09-02T11:11:38;6.60;;;3.60;;
40252;SDS011;25972;51.854;4.534;2022-09-02T11:14:20;8.57;;;3.10;;
40252;SDS011;25972;51.854;4.534;2022-09-02T11:17:02;8.93;;;3.13;;
40252;SDS011;25972;51.854;4.534;2022-09-02T11:19:51;8.85;;;2.83;;
40252;SDS011;25972;51.854;4.534;2022-09-02T11:25:09;12.10;;;3.15;;
40252;SDS011;25972;51.854;4.534;2022-09-02T11:30:22;9.13;;;3.10;;
40252;SDS011;25972;51.854;4.534;2022-09-02T11:33:03;7.78;;;3.40;;
40252;SDS011;25972;51.854;4.534;2022-09-02T11:35:37;10.65;;;3.17;;
40252;SDS011;25972;51.854;4.534;2022-09-02T11:41:37;6.78;;;2.90;;
40252;SDS011;25972;51.854;4.534;2022-09-02T11:43:58;7.20;;;3.10;;
40252;SDS011;25972;51.854;4.534;2022-09-02T11:46:48;5.82;;;2.92;;
40252;SDS011;25972;51.854;4.534;2022-09-02T11:49:42;8.88;;;3.83;;
40252;SDS011;25972;51.854;4.534;2022-09-02T11:52:50;8.13;;;3.38;;
40252;SDS011;25972;51.854;4.534;2022-09-02T11:55:32;9.10;;;3.15;;
40252;SDS011;25972;51.854;4.534;2022-09-02T11:58:01;12.02;;;2.53;;
40252;SDS011;25972;51.854;4.534;2022-09-02T12:13:49;7.40;;;2.92;;
40252;SDS011;25972;51.854;4.534;2022-09-02T12:18:43;6.82;;;2.33;;
40252;SDS011;25972;51.854;4.534;2022-09-02T12:21:11;6.95;;;2.42;;
40252;SDS011;25972;51.854;4.534;2022-09-02T12:26:18;4.53;;;2.33;;
40252;SDS011;25972;51.854;4.534;2022-09-02T12:28:53;6.70;;;2.67;;
40252;SDS011;25972;51.854;4.534;2022-09-02T12:42:08;8.15;;;2.53;;
40252;SDS011;25972;51.854;4.534;2022-09-02T12:44:47;5.60;;;2.40;;
40252;SDS011;25972;51.854;4.534;2022-09-02T12:47:28;9.23;;;3.15;;
40252;SDS011;25972;51.854;4.534;2022-09-02T12:52:49;5.82;;;2.50;;
40252;SDS011;25972;51.854;4.534;2022-09-02T12:57:43;4.20;;;2.15;;
40252;SDS011;25972;51.854;4.534;2022-09-02T13:00:15;5.57;;;2.35;;
40252;SDS011;25972;51.854;4.534;2022-09-02T13:23:03;8.02;;;3.20;;
40252;SDS011;25972;51.854;4.534;2022-09-02T13:31:29;8.88;;;3.05;;
40252;SDS011;25972;51.854;4.534;2022-09-02T13:36:35;7.55;;;3.97;;
40252;SDS011;25972;51.854;4.534;2022-09-02T13:39:24;7.32;;;3.33;;
40252;SDS011;25972;51.854;4.534;2022-09-02T13:41:51;7.22;;;3.30;;
40252;SDS011;25972;51.854;4.534;2022-09-02T13:44:27;10.43;;;3.30;;
40252;SDS011;25972;51.854;4.534;2022-09-02T13:46:56;8.27;;;3.40;;
40252;SDS011;25972;51.854;4.534;2022-09-02T13:49:30;7.45;;;3.13;;
40252;SDS011;25972;51.854;4.534;2022-09-02T13:52:01;13.00;;;3.85;;
40252;SDS011;25972;51.854;4.534;2022-09-02T13:54:32;8.38;;;3.03;;
40252;SDS011;25972;51.854;4.534;2022-09-02T13:57:01;12.15;;;3.78;;
40252;SDS011;25972;51.854;4.534;2022-09-02T13:59:41;18.90;;;6.00;;
40252;SDS011;25972;51.854;4.534;2022-09-02T14:04:57;14.02;;;4.75;;
40252;SDS011;25972;51.854;4.534;2022-09-02T14:07:36;6.85;;;2.72;;
40252;SDS011;25972;51.854;4.534;2022-09-02T14:10:06;8.05;;;2.67;;
40252;SDS011;25972;51.854;4.534;2022-09-02T14:12:36;4.97;;;2.30;;
40252;SDS011;25972;51.854;4.534;2022-09-02T14:15:04;6.28;;;2.50;;
40252;SDS011;25972;51.854;4.534;2022-09-02T14:17:32;8.60;;;2.30;;
40252;SDS011;25972;51.854;4.534;2022-09-02T14:20:06;5.45;;;2.50;;
40252;SDS011;25972;51.854;4.534;2022-09-02T14:22:34;5.90;;;1.90;;
40252;SDS011;25972;51.854;4.534;2022-09-02T14:25:07;4.45;;;2.08;;
40252;SDS011;25972;51.854;4.534;2022-09-02T14:27:37;5.45;;;2.13;;
40252;SDS011;25972;51.854;4.534;2022-09-02T14:30:04;5.35;;;1.80;;
40252;SDS011;25972;51.854;4.534;2022-09-02T14:32:33;5.65;;;2.17;;
40252;SDS011;25972;51.854;4.534;2022-09-02T14:37:51;4.25;;;1.90;;
40252;SDS011;25972;51.854;4.534;2022-09-02T14:40:32;5.15;;;2.03;;
40252;SDS011;25972;51.854;4.534;2022-09-02T14:43:01;3.47;;;1.98;;
40252;SDS011;25972;51.854;4.534;2022-09-02T14:45:32;5.13;;;2.25;;
40252;SDS011;25972;51.854;4.534;2022-09-02T14:47:59;3.20;;;1.90;;
40252;SDS011;25972;51.854;4.534;2022-09-02T14:50:34;3.97;;;1.80;;
40252;SDS011;25972;51.854;4.534;2022-09-02T14:53:03;5.75;;;2.08;;
40252;SDS011;25972;51.854;4.534;2022-09-02T14:55:49;3.85;;;2.03;;
40252;SDS011;25972;51.854;4.534;2022-09-02T14:58:17;4.07;;;2.00;;
40252;SDS011;25972;51.854;4.534;2022-09-02T15:00:45;3.63;;;1.88;;
40252;SDS011;25972;51.854;4.534;2022-09-02T15:03:16;6.10;;;1.90;;
40252;SDS011;25972;51.854;4.534;2022-09-02T15:05:42;7.72;;;2.20;;
40252;SDS011;25972;51.854;4.534;2022-09-02T15:08:09;4.10;;;2.30;;
40252;SDS011;25972;51.854;4.534;2022-09-02T15:10:36;5.35;;;1.98;;
40252;SDS011;25972;51.854;4.534;2022-09-02T15:13:05;4.32;;;1.80;;
40252;SDS011;25972;51.854;4.534;2022-09-02T15:15:32;5.22;;;2.00;;
40252;SDS011;25972;51.854;4.534;2022-09-02T15:17:58;6.50;;;2.20;;
40252;SDS011;25972;51.854;4.534;2022-09-02T15:20:24;4.47;;;2.20;;
40252;SDS011;25972;51.854;4.534;2022-09-02T15:22:50;5.28;;;2.20;;
40252;SDS011;25972;51.854;4.534;2022-09-02T15:25:17;5.45;;;2.08;;
40252;SDS011;25972;51.854;4.534;2022-09-02T15:27:43;7.63;;;2.60;;
40252;SDS011;25972;51.854;4.534;2022-09-02T15:30:09;3.30;;;1.85;;
40252;SDS011;25972;51.854;4.534;2022-09-02T15:32:36;4.88;;;2.10;;
40252;SDS011;25972;51.854;4.534;2022-09-02T15:35:02;4.90;;;2.35;;
40252;SDS011;25972;51.854;4.534;2022-09-02T15:37:28;5.03;;;2.00;;
40252;SDS011;25972;51.854;4.534;2022-09-02T15:39:54;6.15;;;2.00;;
40252;SDS011;25972;51.854;4.534;2022-09-02T15:42:20;3.95;;;2.00;;
40252;SDS011;25972;51.854;4.534;2022-09-02T15:44:47;5.63;;;1.90;;
40252;SDS011;25972;51.854;4.534;2022-09-02T15:47:13;4.30;;;1.90;;
40252;SDS011;25972;51.854;4.534;2022-09-02T15:49:39;5.40;;;2.40;;
40252;SDS011;25972;51.854;4.534;2022-09-02T15:52:05;4.45;;;1.90;;
40252;SDS011;25972;51.854;4.534;2022-09-02T15:54:30;4.78;;;2.17;;
40252;SDS011;25972;51.854;4.534;2022-09-02T15:56:57;4.25;;;2.00;;
40252;SDS011;25972;51.854;4.534;2022-09-02T15:59:23;2.47;;;1.63;;
40252;SDS011;25972;51.854;4.534;2022-09-02T16:01:51;4.57;;;2.10;;
40252;SDS011;25972;51.854;4.534;2022-09-02T16:04:19;4.13;;;2.00;;
40252;SDS011;25972;51.854;4.534;2022-09-02T16:06:46;4.18;;;1.80;;
40252;SDS011;25972;51.854;4.534;2022-09-02T16:09:13;5.93;;;2.13;;
40252;SDS011;25972;51.854;4.534;2022-09-02T16:11:44;2.78;;;1.40;;
40252;SDS011;25972;51.854;4.534;2022-09-02T16:14:11;5.38;;;1.70;;
40252;SDS011;25972;51.854;4.534;2022-09-02T16:16:39;4.68;;;1.52;;
40252;SDS011;25972;51.854;4.534;2022-09-02T16:19:06;5.28;;;1.90;;
40252;SDS011;25972;51.854;4.534;2022-09-02T16:21:33;4.10;;;1.80;;
40252;SDS011;25972;51.854;4.534;2022-09-02T16:23:59;4.85;;;1.80;;
40252;SDS011;25972;51.854;4.534;2022-09-02T16:26:32;2.17;;;1.65;;
40252;SDS011;25972;51.854;4.534;2022-09-02T16:29:03;3.42;;;1.80;;
40252;SDS011;25972;51.854;4.534;2022-09-02T16:31:31;4.68;;;1.60;;
40252;SDS011;25972;51.854;4.534;2022-09-02T16:33:59;2.80;;;1.50;;
40252;SDS011;25972;51.854;4.534;2022-09-02T16:36:30;4.88;;;1.65;;
40252;SDS011;25972;51.854;4.534;2022-09-02T16:38:58;3.58;;;1.55;;
40252;SDS011;25972;51.854;4.534;2022-09-02T16:41:26;6.82;;;2.05;;
40252;SDS011;25972;51.854;4.534;2022-09-02T16:43:59;3.42;;;1.73;;
40252;SDS011;25972;51.854;4.534;2022-09-02T16:46:29;3.97;;;1.80;;
40252;SDS011;25972;51.854;4.534;2022-09-02T16:48:55;3.20;;;1.70;;
40252;SDS011;25972;51.854;4.534;2022-09-02T16:51:22;3.13;;;1.60;;
40252;SDS011;25972;51.854;4.534;2022-09-02T16:53:58;7.32;;;1.80;;
40252;SDS011;25972;51.854;4.534;2022-09-02T16:56:25;4.78;;;1.67;;
40252;SDS011;25972;51.854;4.534;2022-09-02T16:58:52;4.05;;;1.60;;
40252;SDS011;25972;51.854;4.534;2022-09-02T17:01:19;4.63;;;1.95;;
40252;SDS011;25972;51.854;4.534;2022-09-02T17:03:46;4.95;;;1.48;;
40252;SDS011;25972;51.854;4.534;2022-09-02T17:06:12;5.40;;;1.67;;
40252;SDS011;25972;51.854;4.534;2022-09-02T17:08:39;3.30;;;1.38;;
40252;SDS011;25972;51.854;4.534;2022-09-02T17:13:54;3.17;;;1.58;;
40252;SDS011;25972;51.854;4.534;2022-09-02T17:16:29;2.92;;;1.42;;
40252;SDS011;25972;51.854;4.534;2022-09-02T17:18:57;4.07;;;1.58;;
40252;SDS011;25972;51.854;4.534;2022-09-02T17:21:28;4.22;;;1.50;;
40252;SDS011;25972;51.854;4.534;2022-09-02T17:24:00;5.50;;;1.30;;
40252;SDS011;25972;51.854;4.534;2022-09-02T17:26:27;2.80;;;1.70;;
40252;SDS011;25972;51.854;4.534;2022-09-02T17:28:55;3.00;;;1.33;;
40252;SDS011;25972;51.854;4.534;2022-09-02T17:31:23;7.03;;;1.90;;
40252;SDS011;25972;51.854;4.534;2022-09-02T17:33:54;3.28;;;1.90;;